Time;durP1;ratioP1;P1;durP2;ratioP2;P2;SDS_P1;SDS_P2;PMS_P1;PMS_P2;Temp;Humidity;BMP_temperature;BMP_pressure;BME280_temperature;BME280_humidity;BME280_pressure;Samples;Min_cycle;Max_cycle;Signal;HPM_P1;HPM_P2
2022/12/20 00:00:58;;;;;;;1999.90;999.90;;;;;;;8.70;96.13;99650.28;8425028;28;20131;-77
2022/12/20 00:04:59;;;;;;;1999.90;999.90;;;;;;;8.69;96.44;99658.03;8418597;28;20045;-78
2022/12/20 00:09:04;;;;;;;1999.90;999.90;;;;;;;8.68;96.26;99649.41;8431552;28;20363;-78
2022/12/20 00:13:06;;;;;;;1999.90;999.90;;;;;;;8.68;95.66;99636.44;8433755;28;20048;-77
2022/12/20 00:17:07;;;;;;;1999.90;999.90;;;;;;;8.71;95.72;99636.47;8421226;28;20051;-77
2022/12/20 00:21:11;;;;;;;1999.90;999.90;;;;;;;8.70;95.92;99621.78;8423531;28;20039;-77
2022/12/20 00:25:13;;;;;;;1999.90;999.90;;;;;;;8.81;96.21;99636.56;8428938;28;20130;-78
2022/12/20 00:29:14;;;;;;;1999.90;999.90;;;;;;;8.89;95.87;99627.97;8431385;28;20138;-78
2022/12/20 00:33:15;;;;;;;1999.90;999.90;;;;;;;8.89;95.79;99627.09;8814416;22;20023;-78
2022/12/20 00:37:17;;;;;;;1999.90;999.90;;;;;;;8.97;95.55;99621.09;8281535;28;20038;-77
2022/12/20 00:41:24;;;;;;;1999.90;999.90;;;;;;;9.06;95.02;99613.38;8285322;28;20045;-78
2022/12/20 00:45:26;;;;;;;1999.90;999.90;;;;;;;9.05;94.62;99608.19;8255958;28;20044;-78
2022/12/20 00:49:27;;;;;;;1999.90;999.90;;;;;;;9.06;94.98;99608.19;8272395;28;20149;-77
2022/12/20 00:53:30;;;;;;;1999.90;999.90;;;;;;;9.09;94.97;99605.63;8266050;28;20073;-79
2022/12/20 00:57:31;;;;;;;1999.90;999.90;;;;;;;9.08;94.49;99609.06;8282518;28;20588;-77
2022/12/20 01:01:35;;;;;;;1999.90;999.90;;;;;;;9.09;94.30;99599.56;8275735;28;20050;-77
2022/12/20 01:05:38;;;;;;;1999.90;999.90;;;;;;;9.08;94.11;99606.47;8262717;28;20050;-77
2022/12/20 01:09:39;;;;;;;;;;;;;;;9.14;94.37;99613.41;8263482;28;20053;-78
2022/12/20 01:13:44;;;;;;;1999.90;999.90;;;;;;;9.15;94.52;99607.38;8282900;28;19940;-78
2022/12/20 01:17:46;;;;;;;1999.90;999.90;;;;;;;9.16;94.52;99600.50;8256585;28;20054;-77
2022/12/20 01:21:47;;;;;;;1999.90;999.90;;;;;;;9.14;94.05;99594.41;8267580;28;20050;-78
2022/12/20 01:25:50;;;;;;;1999.90;999.90;;;;;;;9.10;93.91;99590.94;8274873;28;20566;-77
2022/12/20 01:29:51;;;;;;;1999.90;999.90;;;;;;;9.01;93.26;99586.59;8276896;28;20039;-78
2022/12/20 01:33:53;;;;;;;1999.90;999.90;;;;;;;8.97;94.43;99582.25;8260309;28;20149;-78
2022/12/20 01:37:55;;;;;;;1999.90;999.90;;;;;;;8.93;93.98;99598.63;8283497;28;20093;-80
2022/12/20 01:41:56;;;;;;;1999.90;999.90;;;;;;;8.93;94.78;99590.00;8279928;28;20045;-78
2022/12/20 01:45:57;;;;;;;1999.90;999.90;;;;;;;8.89;94.03;99583.06;8251918;28;20081;-79
2022/12/20 01:50:03;;;;;;;1999.90;999.90;;;;;;;8.85;94.21;99589.09;8259920;28;20137;-79
2022/12/20 01:54:10;;;;;;;1999.90;999.90;;;;;;;8.89;94.86;99585.66;8278402;28;20136;-77
2022/12/20 01:58:15;;;;;;;1999.90;999.90;;;;;;;8.89;94.75;99591.69;8256624;28;20120;-77
2022/12/20 02:02:17;;;;;;;1999.90;999.90;;;;;;;8.90;95.07;99590.84;8256542;28;20077;-78
2022/12/20 02:06:21;;;;;;;1999.90;999.90;;;;;;;8.90;94.55;99588.25;8267673;28;20038;-79
2022/12/20 02:10:35;;;;;;;1999.90;999.90;;;;;;;8.92;94.59;99576.19;8268491;28;20500;-78
2022/12/20 02:15:14;;;;;;;1999.90;999.90;;;;;;;8.89;94.17;99583.94;8267925;28;20128;-78
2022/12/20 02:19:46;;;;;;;1999.90;999.90;;;;;;;8.85;94.64;99581.34;8283359;28;20052;-78
2022/12/20 02:24:19;;;;;;;1999.90;999.90;;;;;;;8.85;94.14;99584.78;8281368;28;20045;-78
2022/12/20 02:28:43;;;;;;;1999.90;999.90;;;;;;;8.88;94.58;99571.84;8265627;28;20041;-77
2022/12/20 02:32:59;;;;;;;1999.90;999.90;;;;;;;8.90;94.15;99574.44;8275540;28;20064;-78
2022/12/20 02:37:01;;;;;;;1999.90;999.90;;;;;;;8.93;94.15;99557.19;8264877;28;20065;-77
2022/12/20 02:41:12;;;;;;;1999.90;999.90;;;;;;;8.87;93.82;99552.00;8263311;28;20065;-78
2022/12/20 02:45:14;;;;;;;1999.90;999.90;;;;;;;8.78;93.58;99549.34;8256999;28;20076;-78
2022/12/20 02:49:21;;;;;;;1999.90;999.90;;;;;;;8.77;93.59;99555.38;8274791;28;20090;-77
2022/12/20 02:53:22;;;;;;;1999.90;999.90;;;;;;;8.72;93.60;99546.72;8282691;28;20121;-78
2022/12/20 02:57:32;;;;;;;1999.90;999.90;;;;;;;8.70;94.11;99545.84;8267681;28;20038;-77
2022/12/20 03:01:38;;;;;;;1999.90;999.90;;;;;;;8.62;94.31;99547.56;8259989;28;20050;-76
2022/12/20 03:05:45;;;;;;;1999.90;999.90;;;;;;;8.53;93.61;99530.22;8287648;28;20057;-78
2022/12/20 03:09:47;;;;;;;1999.90;999.90;;;;;;;8.48;93.99;99517.28;8265653;28;20070;-77
2022/12/20 03:13:48;;;;;;;1999.90;999.90;;;;;;;8.43;94.47;99506.00;8283500;28;20050;-76
2022/12/20 03:17:50;;;;;;;1999.90;999.90;;;;;;;8.44;95.30;99500.00;8253156;28;20725;-77
2022/12/20 03:21:52;;;;;;;1999.90;999.90;;;;;;;8.45;94.95;99506.03;8265855;28;20045;-77
2022/12/20 03:25:54;;;;;;;1999.90;999.90;;;;;;;8.40;95.24;99500.81;8261116;28;20133;-77
2022/12/20 03:29:55;;;;;;;1999.90;999.90;;;;;;;8.42;94.98;99509.47;8280892;28;20125;-77
2022/12/20 03:33:57;;;;;;;1999.90;999.90;;;;;;;8.47;95.48;99509.50;8275940;28;20056;-77
2022/12/20 03:37:58;;;;;;;1999.90;999.90;;;;;;;8.46;95.60;99507.78;8279437;28;20061;-77
2022/12/20 03:42:00;;;;;;;1999.90;999.90;;;;;;;8.51;95.95;99508.66;8284521;28;20463;-77
2022/12/20 03:46:01;;;;;;;1999.90;999.90;;;;;;;8.58;95.81;99512.13;8274318;28;20042;-77
2022/12/20 03:50:04;;;;;;;1999.90;999.90;;;;;;;8.59;95.37;99513.88;8282745;28;20073;-77
2022/12/20 03:54:06;;;;;;;1999.90;999.90;;;;;;;8.63;95.34;99520.81;8278934;28;20526;-77
2022/12/20 03:58:08;;;;;;;1999.90;999.90;;;;;;;8.63;94.64;99520.81;8259572;28;20038;-77
2022/12/20 04:02:09;;;;;;;1999.90;999.90;;;;;;;8.67;95.52;99527.72;8258267;28;20050;-77
2022/12/20 04:06:11;;;;;;;1999.90;999.90;;;;;;;8.71;94.74;99522.56;8278636;28;20046;-76
2022/12/20 04:10:12;;;;;;;1999.90;999.90;;;;;;;8.73;94.77;99519.97;8275898;28;20068;-77
2022/12/20 04:14:14;;;;;;;1999.90;999.90;;;;;;;8.74;94.81;99514.81;8277322;28;20471;-77
2022/12/20 04:18:16;;;;;;;1999.90;999.90;;;;;;;8.68;94.03;99513.94;8277315;28;20129;-78
2022/12/20 04:22:17;;;;;;;1999.90;999.90;;;;;;;8.71;94.59;99508.75;8274939;28;20042;-76
2022/12/20 04:26:19;;;;;;;1999.90;999.90;;;;;;;8.61;95.11;99499.22;8253288;28;20050;-76
2022/12/20 04:30:21;;;;;;;1999.90;999.90;;;;;;;8.51;95.45;99492.28;8268233;28;20073;-76
2022/12/20 04:34:23;;;;;;;1999.90;999.90;;;;;;;8.37;95.86;99492.19;8278065;28;20483;-76
2022/12/20 04:38:24;;;;;;;1999.90;999.90;;;;;;;8.25;96.81;99499.81;8255204;28;20475;-76
2022/12/20 04:42:26;;;;;;;1999.90;999.90;;;;;;;8.15;97.26;99492.00;8258121;28;20050;-75
2022/12/20 04:46:27;;;;;;;1999.90;999.90;;;;;;;8.06;98.24;99494.53;8253125;28;20064;-75
2022/12/20 04:50:29;;;;;;;1999.90;999.90;;;;;;;8.05;99.08;99481.59;8272409;28;20288;-75
2022/12/20 04:54:30;;;;;;;1999.90;999.90;;;;;;;7.94;98.95;99483.25;8275121;28;20048;-75
2022/12/20 04:58:32;;;;;;;1999.90;999.90;;;;;;;8.03;100.00;99479.00;8274533;28;20502;-75
2022/12/20 05:02:34;;;;;;;1999.90;999.90;;;;;;;7.97;99.44;99480.69;8257629;28;20052;-75
2022/12/20 05:06:36;;;;;;;1999.90;999.90;;;;;;;8.00;100.00;99481.56;8268629;28;20146;-75
2022/12/20 05:10:37;;;;;;;1999.90;999.90;;;;;;;8.10;100.00;99488.53;8254762;28;20051;-75
2022/12/20 05:14:39;;;;;;;1999.90;999.90;;;;;;;8.21;100.00;99498.06;8260058;28;20074;-75
2022/12/20 05:18:40;;;;;;;1999.90;999.90;;;;;;;8.11;100.00;99495.44;8246258;28;20046;-75
2022/12/20 05:27:09;;;;;;;1999.90;999.90;;;;;;;7.86;99.49;99483.16;8270337;28;20046;-75
2022/12/20 05:31:11;;;;;;;1999.90;999.90;;;;;;;7.69;99.54;99487.31;8251987;28;20051;-75
2022/12/20 05:35:13;;;;;;;1999.90;999.90;;;;;;;7.63;100.00;99474.38;8280224;28;20103;-75
2022/12/20 05:39:15;;;;;;;1999.90;999.90;;;;;;;7.63;100.00;99464.91;8258508;28;20089;-75
2022/12/20 05:43:18;;;;;;;1999.90;999.90;;;;;;;7.72;100.00;99467.56;8272623;28;20053;-75
2022/12/20 05:47:19;;;;;;;1999.90;999.90;;;;;;;7.80;100.00;99463.31;8269095;28;20060;-75
2022/12/20 05:51:21;;;;;;;1999.90;999.90;;;;;;;7.91;100.00;99466.00;8263719;28;20049;-75
2022/12/20 05:55:22;;;;;;;1999.90;999.90;;;;;;;8.08;100.00;99463.53;8280907;28;20133;-75
2022/12/20 05:59:26;;;;;;;1999.90;999.90;;;;;;;8.21;100.00;99457.56;8276532;28;20042;-75
2022/12/20 06:03:27;;;;;;;1999.90;999.90;;;;;;;8.17;100.00;99442.88;8261117;28;20137;-75
2022/12/20 06:07:30;;;;;;;1999.90;999.90;;;;;;;8.02;100.00;99427.28;8261456;28;20138;-76
2022/12/20 06:11:32;;;;;;;1999.90;999.90;;;;;;;7.93;100.00;99437.56;8264855;28;20053;-75
2022/12/20 06:15:34;;;;;;;1999.90;999.90;;;;;;;7.86;100.00;99434.06;8269244;28;20133;-75
2022/12/20 06:19:35;;;;;;;1999.90;999.90;;;;;;;7.91;100.00;99439.28;8280036;28;20069;-76
2022/12/20 06:23:36;;;;;;;1999.90;999.90;;;;;;;7.86;100.00;99446.97;8277745;28;20060;-76
2022/12/20 06:27:38;;;;;;;1999.90;999.90;;;;;;;7.76;100.00;99446.06;8261699;28;20042;-75
2022/12/20 06:31:40;;;;;;;1999.90;999.90;;;;;;;7.73;100.00;99429.66;8259094;28;20052;-76
2022/12/20 06:35:41;;;;;;;1999.90;999.90;;;;;;;7.65;100.00;99431.31;8279133;28;20547;-76
2022/12/20 06:39:43;;;;;;;1999.90;999.90;;;;;;;7.60;100.00;99441.63;8278030;28;20046;-76
2022/12/20 06:43:44;;;;;;;1999.90;999.90;;;;;;;7.64;100.00;99447.66;8264213;28;21148;-76
2022/12/20 06:47:46;;;;;;;1999.90;999.90;;;;;;;7.60;100.00;99445.91;8256728;28;20141;-76
2022/12/20 06:51:47;;;;;;;1999.90;999.90;;;;;;;7.54;100.00;99436.38;8274581;28;20140;-76
2022/12/20 06:55:50;;;;;;;1999.90;999.90;;;;;;;7.53;100.00;99422.59;8273703;28;20058;-74
2022/12/20 06:59:51;;;;;;;1999.90;999.90;;;;;;;7.46;100.00;99423.41;8275110;28;20054;-75
2022/12/20 07:03:53;;;;;;;1999.90;999.90;;;;;;;7.38;100.00;99427.66;8265039;28;20483;-75
2022/12/20 07:07:54;;;;;;;1999.90;999.90;;;;;;;7.41;100.00;99429.41;8278591;28;20311;-75
2022/12/20 07:11:56;;;;;;;1999.90;999.90;;;;;;;7.38;100.00;99422.50;8270195;28;20459;-75
2022/12/20 07:15:59;;;;;;;1999.90;999.90;;;;;;;7.56;100.00;99416.63;8278233;28;20727;-75
2022/12/20 07:20:00;;;;;;;;;;;;;;;7.58;100.00;99413.19;8282412;28;20042;-75
2022/12/20 07:24:01;;;;;;;1999.90;999.90;;;;;;;7.57;100.00;99402.84;8260437;28;20368;-75
2022/12/20 07:28:03;;;;;;;1999.90;999.90;;;;;;;7.56;100.00;99403.69;8260417;28;20054;-74
2022/12/20 07:32:05;;;;;;;1999.90;999.90;;;;;;;7.57;100.00;99413.19;8265709;28;20046;-75
2022/12/20 07:36:10;;;;;;;1999.90;999.90;;;;;;;7.69;100.00;99409.81;8280668;28;20112;-75
2022/12/20 07:40:11;;;;;;;1999.90;999.90;;;;;;;7.97;100.00;99403.13;8279292;28;20049;-75
2022/12/20 07:44:13;;;;;;;1999.90;999.90;;;;;;;8.03;100.00;99393.66;8270466;28;20160;-75
2022/12/20 07:48:15;;;;;;;1999.90;999.90;;;;;;;8.10;100.00;99386.81;8267684;28;20137;-75
2022/12/20 07:52:26;;;;;;;1999.90;999.90;;;;;;;8.13;100.00;99400.63;8268869;28;20085;-76
2022/12/20 07:56:30;;;;;;;1999.90;999.90;;;;;;;8.13;100.00;99392.00;8275297;28;20048;-76
2022/12/20 08:00:41;;;;;;;;;;;;;;;8.23;100.00;99400.66;8251897;28;20123;-76
2022/12/20 08:04:42;;;;;;;1999.90;999.90;;;;;;;8.24;100.00;99400.66;8269730;28;19980;-76
2022/12/20 08:08:51;;;;;;;1999.90;999.90;;;;;;;8.20;100.00;99398.94;8263861;28;20160;-75
2022/12/20 08:12:54;;;;;;;1999.90;999.90;;;;;;;8.20;100.00;99409.28;8275426;28;20450;-77
2022/12/20 08:16:55;;;;;;;;;;;;;;;8.11;100.00;99404.94;8270921;28;20491;-76
2022/12/20 08:20:56;;;;;;;1999.90;999.90;;;;;;;8.10;100.00;99423.03;8274821;28;21619;-76
2022/12/20 08:24:58;;;;;;;1999.90;999.90;;;;;;;8.08;100.00;99419.56;8273014;28;20060;-76
2022/12/20 08:28:59;;;;;;;1999.90;999.90;;;;;;;8.08;100.00;99415.25;8276676;28;20964;-76
2022/12/20 08:33:01;;;;;;;1999.90;999.90;;;;;;;8.06;100.00;99397.97;8251496;28;20038;-76
2022/12/20 08:37:02;;;;;;;1999.90;999.90;;;;;;;8.09;100.00;99400.59;8262388;28;20045;-76
2022/12/20 08:41:14;;;;;;;1999.90;999.90;;;;;;;8.11;100.00;99383.38;8270845;28;20459;-76
2022/12/20 08:45:18;;;;;;;1999.90;999.90;;;;;;;8.20;100.00;99383.41;8253706;28;20136;-76
2022/12/20 08:49:19;;;;;;;1999.90;999.90;;;;;;;8.25;100.00;99379.13;8260191;28;20058;-76
2022/12/20 08:53:21;;;;;;;1999.90;999.90;;;;;;;8.29;100.00;99374.84;8277147;28;20056;-76
2022/12/20 08:57:22;;;;;;;1999.90;999.90;;;;;;;8.35;100.00;99386.09;8239499;28;20056;-76
2022/12/20 09:01:25;;;;;;;1999.90;999.90;;;;;;;8.45;100.00;99381.84;8249290;28;20068;-76
2022/12/20 09:05:27;;;;;;;1999.90;999.90;;;;;;;8.52;100.00;99374.97;8275637;28;20039;-75
2022/12/20 09:09:28;;;;;;;1999.90;999.90;;;;;;;8.56;100.00;99384.47;8258904;28;20050;-77
2022/12/20 09:13:30;;;;;;;1999.90;999.90;;;;;;;8.68;100.00;99369.84;8275385;28;20100;-76
2022/12/20 09:17:31;;;;;;;1999.90;999.90;;;;;;;8.76;100.00;99385.38;8259988;28;20133;-77
2022/12/20 09:21:33;;;;;;;1999.90;999.90;;;;;;;8.87;100.00;99394.06;8276512;28;20129;-76
2022/12/20 09:25:36;;;;;;;1999.90;999.90;;;;;;;8.91;100.00;99385.41;8273661;28;20462;-76
2022/12/20 09:29:37;;;;;;;1999.90;999.90;;;;;;;8.92;100.00;99383.69;8264399;28;20088;-76
2022/12/20 09:33:39;;;;;;;1999.90;999.90;;;;;;;9.07;99.57;99392.38;8276688;28;20112;-77
2022/12/20 09:37:41;;;;;;;1999.90;999.90;;;;;;;9.20;99.16;99403.63;8262626;28;20073;-78
2022/12/20 09:41:43;;;;;;;1999.90;999.90;;;;;;;9.34;98.31;99391.53;8272567;28;20380;-77
2022/12/20 09:45:47;;;;;;;1999.90;999.90;;;;;;;9.56;97.28;99387.22;8277202;28;20064;-77
2022/12/20 09:49:53;;;;;;;1999.90;999.90;;;;;;;9.66;95.58;99393.25;8282290;28;20041;-79
2022/12/20 09:54:14;;;;;;;1999.90;999.90;;;;;;;9.67;94.67;99382.00;8282232;28;20049;-77
2022/12/20 09:58:34;;;;;;;1999.90;999.90;;;;;;;9.75;94.29;99380.28;8268266;28;20052;-77
2022/12/20 10:02:36;;;;;;;1999.90;999.90;;;;;;;9.91;93.03;99378.53;8274038;28;20770;-78
2022/12/20 10:07:02;;;;;;;1999.90;999.90;;;;;;;10.01;92.50;99369.84;8281203;28;20054;-77
2022/12/20 10:11:22;;;;;;;1999.90;999.90;;;;;;;10.15;91.82;99355.09;8282660;28;20498;-77
2022/12/20 10:15:37;;;;;;;1999.90;999.90;;;;;;;10.29;91.41;99347.31;8264763;28;20161;-78
2022/12/20 10:20:07;;;;;;;1999.90;999.90;;;;;;;10.40;90.13;99342.91;8261590;28;20042;-77
2022/12/20 10:24:23;;;;;;;1999.90;999.90;;;;;;;10.48;89.70;99335.97;8282422;28;20124;-78
2022/12/20 10:28:34;;;;;;;1999.90;999.90;;;;;;;10.53;88.77;99339.41;8269191;28;20046;-77
2022/12/20 10:32:36;;;;;;;1999.90;999.90;;;;;;;10.62;88.05;99338.50;8265158;28;20077;-78
2022/12/20 10:36:37;;;;;;;1999.90;999.90;;;;;;;10.63;87.62;99332.44;8261175;28;20165;-77
2022/12/20 10:40:42;;;;;;;1999.90;999.90;;;;;;;10.65;88.07;99314.25;8264180;28;20149;-77
2022/12/20 10:45:24;;;;;;;1999.90;999.90;;;;;;;10.74;87.44;99298.59;8272526;28;20446;-77
2022/12/20 10:49:32;;;;;;;1999.90;999.90;;;;;;;10.85;86.28;99309.78;8258930;28;20658;-77
2022/12/20 10:53:36;;;;;;;1999.90;999.90;;;;;;;10.92;84.91;99306.28;8263635;28;20455;-77
2022/12/20 10:57:41;;;;;;;1999.90;999.90;;;;;;;10.92;85.58;99290.69;8274063;28;20483;-77
2022/12/20 11:01:45;;;;;;;1999.90;999.90;;;;;;;10.88;85.89;99297.63;8256528;28;20144;-77
2022/12/20 11:05:56;;;;;;;1999.90;999.90;;;;;;;10.90;86.09;99290.69;8260160;28;20058;-79
2022/12/20 11:10:01;;;;;;;1999.90;999.90;;;;;;;10.93;86.55;99283.75;8264061;28;20046;-80
2022/12/20 11:14:13;;;;;;;1999.90;999.90;;;;;;;11.01;86.08;99275.03;8277994;28;20054;-78
2022/12/20 11:18:46;;;;;;;1999.90;999.90;;;;;;;11.12;85.00;99268.00;8265925;28;20398;-78
2022/12/20 11:23:10;;;;;;;1999.90;999.90;;;;;;;11.19;84.74;99271.41;8273656;28;20053;-78
2022/12/20 11:27:39;;;;;;;1999.90;999.90;;;;;;;11.36;83.59;99266.94;8269642;28;20069;-79
2022/12/20 11:31:53;;;;;;;1999.90;999.90;;;;;;;11.55;84.57;99258.94;8270927;28;20058;-78
2022/12/20 11:36:03;;;;;;;1999.90;999.90;;;;;;;11.64;83.57;99259.69;8269046;28;20065;-79
2022/12/20 11:40:15;;;;;;;1999.90;999.90;;;;;;;11.76;82.80;99251.75;8277780;28;20124;-80
2022/12/20 11:44:26;;;;;;;;;;;;;;;11.99;82.45;99222.88;8270985;28;20360;-78
2022/12/20 11:48:42;;;;;;;1999.90;999.90;;;;;;;12.27;82.07;99209.53;8262345;28;20028;-77
2022/12/20 11:52:50;;;;;;;1999.90;999.90;;;;;;;12.56;80.29;99198.66;8242040;28;20046;-77
2022/12/20 11:57:41;;;;;;;1999.90;999.90;;;;;;;12.75;78.25;99189.69;8281303;28;20069;-77
2022/12/20 12:02:21;;;;;;;1999.90;999.90;;;;;;;12.87;77.37;99172.97;8211070;28;20054;-77
2022/12/20 12:06:31;;;;;;;1999.90;999.90;;;;;;;12.95;76.80;99174.56;8233781;28;20494;-76
2022/12/20 12:10:39;;;;;;;1999.90;999.90;;;;;;;12.94;75.61;99169.38;8222561;28;20050;-77
2022/12/20 12:15:04;;;;;;;1999.90;999.90;;;;;;;12.91;75.11;99178.09;8206796;28;20539;-76
2022/12/20 12:19:11;;;;;;;1999.90;999.90;;;;;;;12.91;75.19;99178.09;8218057;28;20048;-77
2022/12/20 12:23:22;;;;;;;1999.90;999.90;;;;;;;12.86;75.01;99166.91;8238030;28;20173;-77
2022/12/20 12:27:27;;;;;;;1999.90;999.90;;;;;;;12.79;75.27;99175.72;8228911;28;20063;-77
2022/12/20 12:31:55;;;;;;;1999.90;999.90;;;;;;;12.75;75.62;99168.84;8238481;28;20085;-77
2022/12/20 12:36:15;;;;;;;1999.90;999.90;;;;;;;12.76;75.62;99164.50;8255358;28;20038;-77
2022/12/20 12:40:52;;;;;;;1999.90;999.90;;;;;;;12.81;75.42;99150.50;8272677;28;20077;-76
2022/12/20 12:44:58;;;;;;;1999.90;999.90;;;;;;;12.94;74.66;99148.53;8259746;28;20145;-76
2022/12/20 12:49:05;;;;;;;1999.90;999.90;;;;;;;13.05;74.15;99151.78;8245021;28;20050;-77
2022/12/20 12:53:14;;;;;;;1999.90;999.90;;;;;;;13.13;75.28;99156.88;8236900;28;20046;-76
2022/12/20 12:57:17;;;;;;;1999.90;999.90;;;;;;;13.21;74.44;99153.25;8257778;28;20069;-77
2022/12/20 13:01:53;;;;;;;1999.90;999.90;;;;;;;13.21;73.94;99153.25;8266495;28;20052;-76
2022/12/20 13:05:55;;;;;;;1999.90;999.90;;;;;;;13.17;73.94;99146.38;8261171;28;20056;-76
2022/12/20 13:09:57;;;;;;;1999.90;999.90;;;;;;;13.16;73.98;99151.63;8260034;28;20172;-76
2022/12/20 13:14:21;;;;;;;1999.90;999.90;;;;;;;13.10;73.59;99152.56;8279254;28;20080;-76
2022/12/20 13:18:23;;;;;;;1999.90;999.90;;;;;;;13.02;73.71;99144.91;8271029;28;20810;-76
2022/12/20 13:22:25;;;;;;;1999.90;999.90;;;;;;;13.00;73.44;99154.50;8250173;28;20410;-76
2022/12/20 13:26:48;;;;;;;1999.90;999.90;;;;;;;12.99;74.33;99146.72;8264771;28;20052;-76
2022/12/20 13:30:52;;;;;;;1999.90;999.90;;;;;;;13.01;74.66;99132.75;8250584;28;20122;-77
2022/12/20 13:34:56;;;;;;;1999.90;999.90;;;;;;;13.03;73.74;99127.50;8257367;28;20076;-77
2022/12/20 13:39:00;;;;;;;1999.90;999.90;;;;;;;13.07;74.06;99108.31;8248320;28;20594;-77
2022/12/20 13:43:10;;;;;;;1999.90;999.90;;;;;;;13.11;74.48;99110.00;8255679;28;20140;-76
2022/12/20 13:47:31;;;;;;;1999.90;999.90;;;;;;;13.16;73.26;99120.31;8263319;28;20049;-77
2022/12/20 13:51:33;;;;;;;1999.90;999.90;;;;;;;13.15;73.40;99119.47;8270896;28;20631;-77
2022/12/20 13:55:37;;;;;;;1999.90;999.90;;;;;;;13.10;73.89;99110.00;8271463;28;20050;-76
2022/12/20 13:59:38;;;;;;;1999.90;999.90;;;;;;;12.97;73.27;99105.03;8271768;28;20060;-76
2022/12/20 14:03:44;;;;;;;1999.90;999.90;;;;;;;12.92;73.54;99121.63;8244640;28;20144;-76
2022/12/20 14:07:49;;;;;;;1999.90;999.90;;;;;;;12.88;73.86;99119.97;8275333;28;20049;-76
2022/12/20 14:11:51;;;;;;;1999.90;999.90;;;;;;;12.82;73.96;99110.53;8258511;28;20030;-77
2022/12/20 14:15:53;;;;;;;1999.90;999.90;;;;;;;12.76;73.87;99118.47;8255276;28;20219;-76
2022/12/20 14:20:04;;;;;;;1999.90;999.90;;;;;;;12.74;74.62;99119.34;8245441;28;20053;-77
2022/12/20 14:24:15;;;;;;;1999.90;999.90;;;;;;;12.75;73.93;99121.97;8268184;28;20056;-76
2022/12/20 14:28:28;;;;;;;1999.90;999.90;;;;;;;12.73;74.38;99108.06;8280276;28;20052;-77
2022/12/20 14:32:30;;;;;;;1999.90;999.90;;;;;;;12.65;74.54;99097.78;8264465;28;20455;-77
2022/12/20 14:36:33;;;;;;;1999.90;999.90;;;;;;;12.63;74.72;99101.31;8247774;28;20531;-76
2022/12/20 14:40:39;;;;;;;;;;;;;;;12.55;74.57;99093.63;8246283;28;20070;-77
2022/12/20 14:44:41;;;;;;;1999.90;999.90;;;;;;;12.59;74.79;99084.88;8244401;28;19930;-76
2022/12/20 14:48:42;;;;;;;1999.90;999.90;;;;;;;12.66;74.44;99081.28;8227536;28;20058;-76
2022/12/20 14:52:44;;;;;;;1999.90;999.90;;;;;;;12.67;74.27;99082.13;8243932;28;20572;-76
2022/12/20 14:56:49;;;;;;;1999.90;999.90;;;;;;;12.67;73.98;99085.59;8246353;28;20081;-77
2022/12/20 15:01:00;;;;;;;1999.90;999.90;;;;;;;12.63;74.09;99070.91;8239395;28;20069;-77
2022/12/20 15:05:37;;;;;;;1999.90;999.90;;;;;;;12.57;74.45;99067.56;8233611;28;20142;-76
2022/12/20 15:09:38;;;;;;;1999.90;999.90;;;;;;;12.56;74.30;99074.50;8252461;28;20090;-77
2022/12/20 15:13:45;;;;;;;1999.90;999.90;;;;;;;12.51;75.14;99080.69;8239859;28;20494;-77
2022/12/20 15:17:47;;;;;;;1999.90;999.90;;;;;;;12.52;74.48;99074.59;8240712;28;20100;-76
2022/12/20 15:21:49;;;;;;;1999.90;999.90;;;;;;;12.51;75.19;99078.94;8237921;28;20034;-77
2022/12/20 15:25:50;;;;;;;1999.90;999.90;;;;;;;12.50;74.61;99090.25;8259837;28;20129;-76
2022/12/20 15:29:51;;;;;;;1999.90;999.90;;;;;;;12.48;75.20;99101.56;8252584;28;20043;-76
2022/12/20 15:33:56;;;;;;;1999.90;999.90;;;;;;;12.45;74.80;99089.47;8237962;28;20046;-76
2022/12/20 15:37:57;;;;;;;1999.90;999.90;;;;;;;12.43;75.21;99086.03;8271140;28;20042;-76
2022/12/20 15:42:01;;;;;;;1999.90;999.90;;;;;;;12.40;75.55;99078.28;8259489;28;20038;-76
2022/12/20 15:46:03;;;;;;;1999.90;999.90;;;;;;;12.35;76.37;99085.28;8261957;28;20145;-76
2022/12/20 15:50:05;;;;;;;1999.90;999.90;;;;;;;12.28;78.27;99081.06;8244703;28;20039;-78
2022/12/20 15:54:26;;;;;;;1999.90;999.90;;;;;;;12.19;79.56;99069.06;8266465;28;20050;-77
2022/12/20 15:58:27;;;;;;;1999.90;999.90;;;;;;;12.06;80.76;99078.81;8277657;28;20077;-79
2022/12/20 16:02:31;;;;;;;1999.90;999.90;;;;;;;11.93;81.93;99086.81;8249886;28;20054;-77
2022/12/20 16:06:33;;;;;;;1999.90;999.90;;;;;;;11.75;84.24;99077.50;8275351;28;20049;-78
2022/12/20 16:10:43;;;;;;;1999.90;999.90;;;;;;;11.70;83.71;99079.31;8271046;28;20092;-77
2022/12/20 16:15:07;;;;;;;1999.90;999.90;;;;;;;11.64;84.49;99076.78;8267367;28;20518;-78
2022/12/20 16:20:28;;;;;;;1999.90;999.90;;;;;;;11.65;83.55;99079.38;9170846;22;20097;-78
2022/12/20 16:24:42;;;;;;;1999.90;999.90;;;;;;;11.60;83.68;99070.78;8241800;28;20081;-80
2022/12/20 16:29:04;;;;;;;1999.90;999.90;;;;;;;11.68;82.48;99063.75;8240741;28;20055;-78
2022/12/20 16:33:26;;;;;;;1999.90;999.90;;;;;;;11.67;82.46;99056.84;8220014;28;20046;-78
2022/12/20 16:37:32;;;;;;;1999.90;999.90;;;;;;;11.66;82.56;99065.47;8256860;28;20073;-79
2022/12/20 16:41:43;;;;;;;1999.90;999.90;;;;;;;11.67;82.33;99071.53;8242751;28;20050;-79
2022/12/20 16:46:02;;;;;;;1999.90;999.90;;;;;;;11.62;83.02;99066.41;8243597;28;20058;-78
2022/12/20 16:50:12;;;;;;;1999.90;999.90;;;;;;;11.62;83.51;99050.81;8242011;28;20050;-78
2022/12/20 16:54:38;;;;;;;1999.90;999.90;;;;;;;11.56;83.67;99047.44;8256213;28;20041;-78
2022/12/20 16:59:21;;;;;;;1999.90;999.90;;;;;;;11.59;83.89;99050.84;8226308;28;20615;-78
2022/12/20 17:03:43;;;;;;;1999.90;999.90;;;;;;;11.55;84.57;99051.78;8249453;28;20074;-78
2022/12/20 17:08:08;;;;;;;1999.90;999.90;;;;;;;11.45;84.88;99056.25;8253530;28;20046;-78
2022/12/20 17:12:30;;;;;;;1999.90;999.90;;;;;;;11.42;84.45;99045.03;8243317;28;20031;-78
2022/12/20 17:17:32;;;;;;;1999.90;999.90;;;;;;;11.47;84.93;99059.66;8243313;28;20137;-77
2022/12/20 17:21:36;;;;;;;1999.90;999.90;;;;;;;11.53;83.77;99063.09;8228791;28;20050;-78
2022/12/20 17:25:55;;;;;;;1999.90;999.90;;;;;;;11.50;83.43;99070.06;8262746;28;20351;-79
2022/12/20 17:29:56;;;;;;;1999.90;999.90;;;;;;;11.53;83.27;99074.34;8231739;28;20519;-78
2022/12/20 17:34:03;;;;;;;1999.90;999.90;;;;;;;11.57;83.08;99072.56;8240447;28;20046;-79
2022/12/20 17:38:14;;;;;;;1999.90;999.90;;;;;;;11.61;82.95;99064.69;8256850;28;20058;-78
2022/12/20 17:42:28;;;;;;;1999.90;999.90;;;;;;;11.63;82.57;99075.06;8236209;28;20047;-79
2022/12/20 17:46:52;;;;;;;1999.90;999.90;;;;;;;11.65;83.15;99065.50;8244058;28;20050;-78
2022/12/20 17:51:26;;;;;;;1999.90;999.90;;;;;;;11.59;84.20;99065.59;8259266;28;20057;-80
2022/12/20 17:56:07;;;;;;;1999.90;999.90;;;;;;;11.53;84.71;99068.28;8239994;28;20475;-78
2022/12/20 18:00:29;;;;;;;1999.90;999.90;;;;;;;11.40;86.36;99071.03;8230479;28;20084;-77
2022/12/20 18:04:39;;;;;;;1999.90;999.90;;;;;;;11.32;87.84;99072.03;8246973;28;20092;-78
2022/12/20 18:08:41;;;;;;;1999.90;999.90;;;;;;;11.28;88.81;99070.34;8250274;28;20053;-79
2022/12/20 18:12:43;;;;;;;1999.90;999.90;;;;;;;11.20;90.02;99067.84;8268204;28;20818;-80
2022/12/20 18:16:44;;;;;;;1999.90;999.90;;;;;;;11.11;90.99;99075.72;8224682;28;20146;-77
2022/12/20 18:20:49;;;;;;;1999.90;999.90;;;;;;;11.02;92.33;99079.31;8229448;28;20070;-78
2022/12/20 18:24:51;;;;;;;1999.90;999.90;;;;;;;10.98;93.31;99072.44;8233324;28;20653;-79
2022/12/20 18:29:00;;;;;;;1999.90;999.90;;;;;;;10.93;94.39;99084.59;8211293;28;20069;-77
2022/12/20 18:33:01;;;;;;;1999.90;999.90;;;;;;;10.88;95.17;99092.44;8200182;28;20052;-76